createdAt,value
2022-11-29T00:02:11.949Z,9.60
2022-11-29T00:04:39.704Z,9.50
2022-11-29T00:07:07.403Z,9.50
2022-11-29T00:09:35.121Z,9.50
2022-11-29T00:12:14.680Z,9.50
2022-11-29T00:14:42.968Z,9.40
2022-11-29T00:17:12.136Z,9.40
2022-11-29T00:19:40.117Z,9.40
2022-11-29T00:22:07.781Z,9.40
2022-11-29T00:24:36.692Z,9.40
2022-11-29T00:27:04.560Z,9.40
2022-11-29T00:29:32.305Z,9.40
2022-11-29T00:32:00.108Z,9.40
2022-11-29T00:34:29.325Z,9.50
2022-11-29T00:36:57.050Z,9.50
2022-11-29T00:39:24.817Z,9.50
2022-11-29T00:41:52.643Z,9.50
2022-11-29T00:44:20.837Z,9.40
2022-11-29T00:46:49.129Z,9.40
2022-11-29T00:49:16.906Z,9.40
2022-11-29T00:51:45.914Z,9.30
2022-11-29T00:54:13.737Z,9.30
2022-11-29T00:56:41.437Z,9.30
2022-11-29T00:59:09.188Z,9.30
2022-11-29T01:01:36.963Z,9.40
2022-11-29T01:04:04.999Z,9.40
2022-11-29T01:06:32.709Z,9.40
2022-11-29T01:09:01.750Z,9.40
2022-11-29T01:11:29.442Z,9.40
2022-11-29T01:13:58.549Z,9.40
2022-11-29T01:16:26.949Z,9.50
2022-11-29T01:18:54.703Z,9.50
2022-11-29T01:21:23.331Z,9.50
2022-11-29T01:23:51.752Z,9.50
2022-11-29T01:26:21.706Z,9.50
2022-11-29T01:28:50.513Z,9.40
2022-11-29T01:31:18.866Z,9.50
2022-11-29T01:33:46.964Z,9.50
2022-11-29T01:36:15.392Z,9.50
2022-11-29T01:38:43.478Z,9.50
2022-11-29T01:41:13.593Z,9.50
2022-11-29T01:43:59.624Z,9.50
2022-11-29T01:46:27.843Z,9.50
2022-11-29T01:48:58.415Z,9.60
2022-11-29T01:51:26.626Z,9.50
2022-11-29T01:53:54.588Z,9.50
2022-11-29T01:56:22.856Z,9.50
2022-11-29T01:58:50.861Z,9.50
2022-11-29T02:01:20.051Z,9.50
2022-11-29T02:03:47.835Z,9.50
2022-11-29T02:06:16.636Z,9.60
2022-11-29T02:08:47.290Z,9.60
2022-11-29T02:11:25.677Z,9.50
2022-11-29T02:13:59.277Z,9.50
2022-11-29T02:16:31.616Z,9.50
2022-11-29T02:19:02.767Z,9.50
2022-11-29T02:21:39.549Z,9.40
2022-11-29T02:24:15.928Z,9.40
2022-11-29T02:27:01.517Z,9.40
2022-11-29T02:30:02.206Z,9.50
2022-11-29T02:32:55.284Z,9.50
2022-11-29T02:35:31.607Z,9.60
2022-11-29T02:38:07.331Z,9.60
2022-11-29T02:40:40.045Z,9.70
2022-11-29T02:43:31.615Z,9.70
2022-11-29T02:46:05.606Z,9.70
2022-11-29T02:48:42.668Z,9.70
2022-11-29T02:51:12.957Z,9.70
2022-11-29T02:53:45.101Z,9.70
2022-11-29T02:56:15.229Z,9.70
2022-11-29T02:58:46.505Z,9.70
2022-11-29T03:01:17.763Z,9.70
2022-11-29T03:03:49.172Z,9.70
2022-11-29T03:06:21.446Z,9.70
2022-11-29T03:08:53.540Z,9.80
2022-11-29T03:11:24.847Z,9.80
2022-11-29T03:13:56.776Z,9.80
2022-11-29T03:16:29.606Z,9.90
2022-11-29T03:19:05.071Z,9.90
2022-11-29T03:21:39.934Z,9.90
2022-11-29T03:24:10.334Z,9.90
2022-11-29T03:26:41.795Z,9.90
2022-11-29T03:29:12.673Z,10.00
2022-11-29T03:31:44.640Z,10.00
2022-11-29T03:34:17.685Z,10.00
2022-11-29T03:36:48.891Z,9.90
2022-11-29T03:39:19.481Z,9.90
2022-11-29T03:41:49.910Z,9.90
2022-11-29T03:44:19.096Z,9.70
2022-11-29T03:46:51.361Z,9.60
2022-11-29T03:49:23.632Z,9.60
2022-11-29T03:51:56.156Z,9.50
2022-11-29T03:54:26.464Z,9.50
2022-11-29T03:56:54.448Z,9.50
2022-11-29T03:59:30.329Z,9.50
2022-11-29T04:02:05.923Z,9.50
2022-11-29T04:04:57.468Z,9.60
2022-11-29T04:07:35.480Z,9.60
2022-11-29T04:10:09.173Z,9.60
2022-11-29T04:12:42.246Z,9.70
2022-11-29T04:15:28.618Z,9.70
2022-11-29T04:18:04.848Z,9.60
2022-11-29T04:20:51.257Z,9.50
2022-11-29T04:23:28.201Z,9.50
2022-11-29T04:26:19.421Z,9.40
2022-11-29T04:29:00.914Z,9.40
2022-11-29T04:31:34.265Z,9.30
2022-11-29T04:34:20.393Z,9.30
2022-11-29T04:37:08.185Z,9.40
2022-11-29T04:39:50.174Z,9.30
2022-11-29T04:42:28.774Z,9.30
2022-11-29T04:45:07.600Z,9.20
2022-11-29T04:47:46.472Z,9.20
2022-11-29T04:50:19.840Z,9.20
2022-11-29T04:52:56.751Z,9.30
2022-11-29T04:55:35.102Z,9.30
2022-11-29T04:58:08.294Z,9.40
2022-11-29T05:00:40.664Z,9.30
2022-11-29T05:03:12.579Z,9.20
2022-11-29T05:05:44.110Z,9.10
2022-11-29T05:08:21.289Z,8.90
2022-11-29T05:10:53.362Z,8.90
2022-11-29T05:13:27.856Z,8.70
2022-11-29T05:16:07.840Z,8.60
2022-11-29T05:18:57.698Z,8.50
2022-11-29T05:21:28.764Z,8.40
2022-11-29T05:24:00.580Z,8.40
2022-11-29T05:26:30.981Z,8.30
2022-11-29T05:29:01.902Z,8.20
2022-11-29T05:31:35.998Z,8.30
2022-11-29T05:34:12.664Z,8.20
2022-11-29T05:36:44.409Z,8.20
2022-11-29T05:39:20.526Z,8.10
2022-11-29T05:41:56.721Z,8.20
2022-11-29T05:44:29.188Z,8.10
2022-11-29T05:46:59.220Z,8.00
2022-11-29T05:49:32.251Z,8.10
2022-11-29T05:52:14.200Z,8.10
2022-11-29T05:54:45.463Z,8.10
2022-11-29T05:57:20.486Z,8.00
2022-11-29T05:59:49.999Z,8.00
2022-11-29T06:02:25.353Z,7.90
2022-11-29T06:04:59.624Z,7.90
2022-11-29T06:07:30.537Z,7.90
2022-11-29T06:10:01.824Z,7.90
2022-11-29T06:12:34.993Z,7.90
2022-11-29T06:15:17.492Z,7.90
2022-11-29T06:17:55.121Z,7.90
2022-11-29T06:20:41.004Z,7.90
2022-11-29T06:23:18.696Z,7.80
2022-11-29T06:26:00.701Z,7.90
2022-11-29T06:28:39.214Z,7.90
2022-11-29T06:31:12.932Z,7.80
2022-11-29T06:33:46.617Z,7.80
2022-11-29T06:36:16.816Z,7.70
2022-11-29T06:38:44.728Z,7.80
2022-11-29T06:41:15.259Z,7.70
2022-11-29T06:43:44.719Z,7.70
2022-11-29T06:46:16.459Z,7.70
2022-11-29T06:48:46.993Z,7.70
2022-11-29T06:51:19.685Z,7.70
2022-11-29T06:53:52.011Z,7.70
2022-11-29T06:56:22.293Z,7.70
2022-11-29T06:58:59.073Z,7.60
2022-11-29T07:01:31.335Z,7.70
2022-11-29T07:04:08.061Z,7.70
2022-11-29T07:06:36.408Z,7.70
2022-11-29T07:09:10.426Z,7.70
2022-11-29T07:11:38.578Z,7.80
2022-11-29T07:14:08.058Z,7.80
2022-11-29T07:16:39.707Z,7.70
2022-11-29T07:19:11.725Z,7.70
2022-11-29T07:21:45.980Z,7.80
2022-11-29T07:24:22.042Z,7.70
2022-11-29T07:26:59.577Z,7.80
2022-11-29T07:29:33.985Z,7.70
2022-11-29T07:32:08.825Z,7.70
2022-11-29T07:34:39.783Z,7.80
2022-11-29T07:37:10.960Z,7.90
2022-11-29T07:39:44.750Z,7.90
2022-11-29T07:42:17.426Z,7.90
2022-11-29T07:44:51.912Z,8.00
2022-11-29T07:47:19.827Z,8.00
2022-11-29T07:49:47.541Z,8.00
2022-11-29T07:52:16.006Z,8.00
2022-11-29T07:54:44.301Z,8.10
2022-11-29T07:57:12.333Z,8.00
2022-11-29T07:59:40.023Z,8.10
2022-11-29T08:02:11.961Z,8.10
2022-11-29T08:04:42.068Z,8.00
2022-11-29T08:07:09.965Z,8.10
2022-11-29T08:09:37.761Z,8.10
2022-11-29T08:12:05.672Z,8.10
2022-11-29T08:14:33.533Z,8.10
2022-11-29T08:17:01.279Z,8.10
2022-11-29T08:19:30.317Z,8.10
2022-11-29T08:21:57.984Z,8.10
2022-11-29T08:24:26.362Z,8.10
2022-11-29T08:26:54.230Z,8.10
2022-11-29T08:29:21.983Z,8.10
2022-11-29T08:31:53.241Z,8.10
2022-11-29T08:34:21.153Z,8.10
2022-11-29T08:36:50.222Z,8.10
2022-11-29T08:39:17.976Z,8.10
2022-11-29T08:41:45.662Z,8.20
2022-11-29T08:44:13.362Z,8.20
2022-11-29T08:46:58.667Z,8.10
2022-11-29T08:49:26.344Z,8.20
2022-11-29T08:52:16.167Z,8.10
2022-11-29T08:54:43.090Z,8.10
2022-11-29T08:57:38.708Z,8.10
2022-11-29T08:59:58.951Z,8.10
2022-11-29T09:02:26.680Z,8.10
2022-11-29T09:04:54.457Z,8.00
2022-11-29T09:07:23.525Z,7.90
2022-11-29T09:09:51.442Z,8.00
2022-11-29T09:12:19.117Z,8.00
2022-11-29T09:14:47.004Z,8.10
2022-11-29T09:17:14.781Z,8.10
2022-11-29T09:19:42.613Z,8.10
2022-11-29T09:22:10.344Z,8.20
2022-11-29T09:24:39.382Z,8.20
2022-11-29T09:27:07.254Z,8.20
2022-11-29T09:29:35.079Z,8.20
2022-11-29T09:32:02.923Z,8.30
2022-11-29T09:34:30.637Z,8.30
2022-11-29T09:36:58.364Z,8.30
2022-11-29T09:39:26.082Z,8.30
2022-11-29T09:42:18.770Z,8.30
2022-11-29T09:44:52.381Z,8.30
2022-11-29T09:47:26.939Z,8.40
2022-11-29T09:50:01.118Z,8.30
2022-11-29T09:52:34.978Z,8.30
2022-11-29T09:55:10.059Z,8.40
2022-11-29T09:57:40.070Z,8.40
2022-11-29T10:00:15.078Z,8.50
2022-11-29T10:02:47.597Z,8.50
2022-11-29T10:05:17.824Z,8.60
2022-11-29T10:07:48.430Z,8.60
2022-11-29T10:10:18.158Z,8.60
2022-11-29T10:12:49.477Z,8.60
2022-11-29T10:15:19.941Z,8.60
2022-11-29T10:17:51.465Z,8.60
2022-11-29T10:20:21.320Z,8.60
2022-11-29T10:22:53.450Z,8.60
2022-11-29T10:25:23.650Z,8.70
2022-11-29T10:27:53.534Z,8.70
2022-11-29T10:30:21.451Z,8.70
2022-11-29T10:32:51.793Z,8.70
2022-11-29T10:35:20.604Z,8.70
2022-11-29T10:38:14.486Z,8.80
2022-11-29T10:40:39.430Z,8.90
2022-11-29T10:43:08.980Z,8.90
2022-11-29T10:45:39.830Z,8.90
2022-11-29T10:48:08.378Z,9.00
2022-11-29T10:50:36.834Z,9.00
2022-11-29T10:53:06.470Z,8.90
2022-11-29T10:55:37.421Z,8.90
2022-11-29T10:58:11.118Z,8.90
2022-11-29T11:00:46.329Z,8.90
2022-11-29T11:03:16.557Z,9.00
2022-11-29T11:05:55.530Z,9.00
2022-11-29T11:08:25.251Z,8.90
2022-11-29T11:10:58.622Z,8.90
2022-11-29T11:13:31.485Z,8.80
2022-11-29T11:15:59.761Z,8.70
2022-11-29T11:18:30.790Z,8.70
2022-11-29T11:20:59.897Z,8.80
2022-11-29T11:23:29.925Z,8.80
2022-11-29T11:25:59.063Z,8.80
2022-11-29T11:28:28.250Z,8.80
2022-11-29T11:30:58.538Z,8.80
2022-11-29T11:33:27.101Z,8.80
2022-11-29T11:36:02.062Z,8.80
2022-11-29T11:38:30.081Z,8.80
2022-11-29T11:41:03.446Z,8.90
2022-11-29T11:43:31.526Z,8.90
2022-11-29T11:46:00.628Z,8.90
2022-11-29T11:48:28.449Z,8.90
2022-11-29T11:50:57.671Z,9.00
2022-11-29T11:53:27.678Z,9.00
2022-11-29T11:55:58.111Z,9.10
2022-11-29T11:58:27.372Z,9.10
2022-11-29T12:01:04.767Z,9.20
2022-11-29T12:03:45.701Z,9.20
2022-11-29T12:06:28.308Z,9.20
2022-11-29T12:08:58.606Z,9.20
2022-11-29T12:11:26.971Z,9.20
2022-11-29T12:13:56.367Z,9.20
2022-11-29T12:16:28.264Z,9.30
2022-11-29T12:19:01.547Z,9.40
2022-11-29T12:21:32.868Z,9.50
2022-11-29T12:24:03.247Z,9.50
2022-11-29T12:26:56.459Z,9.50
2022-11-29T12:29:22.274Z,9.60
2022-11-29T12:31:58.111Z,9.50
2022-11-29T12:34:34.820Z,9.50
2022-11-29T12:37:07.682Z,9.50
2022-11-29T12:39:40.316Z,9.50
2022-11-29T12:42:12.804Z,9.50
2022-11-29T12:44:47.133Z,9.50
2022-11-29T12:47:37.929Z,9.50
2022-11-29T12:50:15.293Z,9.60
2022-11-29T12:52:48.203Z,9.70
2022-11-29T12:55:20.787Z,9.70
2022-11-29T12:57:52.342Z,9.70
2022-11-29T13:00:20.748Z,9.80
2022-11-29T13:02:53.328Z,9.80
2022-11-29T13:05:26.865Z,9.80
2022-11-29T13:08:02.102Z,9.80
2022-11-29T13:10:34.130Z,9.80
2022-11-29T13:13:05.469Z,9.80
2022-11-29T13:15:38.060Z,9.80
2022-11-29T13:18:12.236Z,9.80
2022-11-29T13:20:43.724Z,9.70
2022-11-29T13:23:17.040Z,9.60
2022-11-29T13:25:46.688Z,9.60
2022-11-29T13:28:18.814Z,9.60
2022-11-29T13:30:46.548Z,9.60
2022-11-29T13:33:18.434Z,9.60
2022-11-29T13:35:50.178Z,9.60
2022-11-29T13:38:20.871Z,9.60
2022-11-29T13:40:52.770Z,9.60
2022-11-29T13:43:22.930Z,9.60
2022-11-29T13:45:53.384Z,9.60
2022-11-29T13:48:34.174Z,9.60
2022-11-29T13:51:16.754Z,9.50
2022-11-29T13:53:49.157Z,9.40
2022-11-29T13:56:25.880Z,9.40
2022-11-29T13:58:54.368Z,9.40
2022-11-29T14:01:23.292Z,9.40
2022-11-29T14:04:01.693Z,9.40
2022-11-29T14:06:33.162Z,9.40
2022-11-29T14:09:22.378Z,9.40
2022-11-29T14:11:51.815Z,9.40
2022-11-29T14:14:22.370Z,9.40
2022-11-29T14:16:51.232Z,9.20
2022-11-29T14:19:21.028Z,9.30
2022-11-29T14:22:07.486Z,9.30
2022-11-29T14:24:42.922Z,9.30
2022-11-29T14:27:28.503Z,9.40
2022-11-29T14:29:56.265Z,9.40
2022-11-29T14:32:25.366Z,9.40
2022-11-29T14:34:55.864Z,9.50
2022-11-29T14:37:26.841Z,9.50
2022-11-29T14:39:57.901Z,9.60
2022-11-29T14:42:27.192Z,9.60
2022-11-29T14:44:56.061Z,9.60
2022-11-29T14:47:25.677Z,9.60
2022-11-29T14:49:54.918Z,9.60
2022-11-29T14:52:25.466Z,9.50
2022-11-29T14:54:55.624Z,9.50
2022-11-29T14:57:52.457Z,9.50
2022-11-29T15:00:21.079Z,9.50
2022-11-29T15:02:50.420Z,9.50
2022-11-29T15:05:19.623Z,9.50
2022-11-29T15:07:51.315Z,9.50
2022-11-29T15:10:20.910Z,9.50
2022-11-29T15:12:49.124Z,9.40
2022-11-29T15:15:32.652Z,9.40
2022-11-29T15:18:04.172Z,9.40
2022-11-29T15:20:58.722Z,9.40
2022-11-29T15:23:26.476Z,9.30
2022-11-29T15:25:54.939Z,9.30
2022-11-29T15:28:23.694Z,9.30
2022-11-29T15:31:01.868Z,9.30
2022-11-29T15:33:30.167Z,9.20
2022-11-29T15:36:04.072Z,9.20
2022-11-29T15:38:41.780Z,9.20
2022-11-29T15:41:18.779Z,9.20
2022-11-29T15:43:48.880Z,9.20
2022-11-29T15:46:21.397Z,9.20
2022-11-29T15:48:50.988Z,9.10
2022-11-29T15:51:22.089Z,9.10
2022-11-29T15:53:53.969Z,9.10
2022-11-29T15:56:31.878Z,9.00
2022-11-29T15:59:01.220Z,9.00
2022-11-29T16:01:30.508Z,9.00
2022-11-29T16:03:58.786Z,9.00
2022-11-29T16:06:29.647Z,9.00
2022-11-29T16:08:57.449Z,8.90
2022-11-29T16:11:27.664Z,8.90
2022-11-29T16:14:01.632Z,8.90
2022-11-29T16:16:32.576Z,8.80
2022-11-29T16:19:09.724Z,8.80
2022-11-29T16:21:37.466Z,8.80
2022-11-29T16:24:12.429Z,8.80
2022-11-29T16:26:42.795Z,8.80
2022-11-29T16:29:21.125Z,8.80
2022-11-29T16:31:50.217Z,8.80
2022-11-29T16:34:22.167Z,8.70
2022-11-29T16:37:00.987Z,8.80
2022-11-29T16:39:29.329Z,8.70
2022-11-29T16:42:06.335Z,8.70
2022-11-29T16:44:52.643Z,8.70
2022-11-29T16:47:23.016Z,8.70
2022-11-29T16:50:08.204Z,8.70
2022-11-29T16:52:35.953Z,8.70
2022-11-29T16:55:03.639Z,8.60
2022-11-29T16:57:32.160Z,8.60
2022-11-29T16:59:59.867Z,8.50
2022-11-29T17:02:30.154Z,8.50
2022-11-29T17:04:58.490Z,8.50
2022-11-29T17:07:27.157Z,8.50
2022-11-29T17:09:55.120Z,8.50
2022-11-29T17:12:22.826Z,8.40
2022-11-29T17:14:50.506Z,8.40
2022-11-29T17:17:19.265Z,8.30
2022-11-29T17:19:48.490Z,8.30
2022-11-29T17:22:16.229Z,8.30
2022-11-29T17:24:48.080Z,8.30
2022-11-29T17:27:16.320Z,8.20
2022-11-29T17:29:43.960Z,8.20
2022-11-29T17:32:11.688Z,8.20
2022-11-29T17:34:39.426Z,8.10
2022-11-29T17:37:08.435Z,8.10
2022-11-29T17:39:36.099Z,8.10
2022-11-29T17:42:03.832Z,8.10
2022-11-29T17:44:33.852Z,8.00
2022-11-29T17:47:01.632Z,8.00
2022-11-29T17:49:29.319Z,8.00
2022-11-29T17:51:57.059Z,8.00
2022-11-29T17:54:26.133Z,8.00
2022-11-29T17:56:53.834Z,8.00
2022-11-29T17:59:21.510Z,8.00
2022-11-29T18:01:49.319Z,8.00
2022-11-29T18:04:17.093Z,8.00
2022-11-29T18:06:49.327Z,7.90
2022-11-29T18:09:17.572Z,8.00
2022-11-29T18:11:49.121Z,8.00
2022-11-29T18:14:18.545Z,7.90
2022-11-29T18:16:46.460Z,7.90
2022-11-29T18:19:15.310Z,7.90
2022-11-29T18:21:43.163Z,7.90
2022-11-29T18:24:11.130Z,7.90
2022-11-29T18:26:39.372Z,7.90
2022-11-29T18:29:09.447Z,7.90
2022-11-29T18:31:38.052Z,7.90
2022-11-29T18:34:09.303Z,7.90
2022-11-29T18:36:37.822Z,7.90
2022-11-29T18:39:07.088Z,7.90
2022-11-29T18:41:34.851Z,7.80
2022-11-29T18:44:03.212Z,7.80
2022-11-29T18:46:33.108Z,7.70
2022-11-29T18:49:01.348Z,7.70
2022-11-29T18:51:30.224Z,7.60
2022-11-29T18:53:58.283Z,7.60
2022-11-29T18:56:27.658Z,7.60
2022-11-29T18:58:58.488Z,7.50
2022-11-29T19:01:27.760Z,7.50
2022-11-29T19:03:58.450Z,7.50
2022-11-29T19:06:27.468Z,7.50
2022-11-29T19:08:56.910Z,7.50
2022-11-29T19:11:25.592Z,7.50
2022-11-29T19:13:56.013Z,7.60
2022-11-29T19:16:24.600Z,7.70
2022-11-29T19:18:52.860Z,7.70
2022-11-29T19:21:22.837Z,7.80
2022-11-29T19:23:52.213Z,7.80
2022-11-29T19:26:19.977Z,7.80
2022-11-29T19:28:48.290Z,7.90
2022-11-29T19:31:17.053Z,7.90
2022-11-29T19:33:45.271Z,7.90
2022-11-29T19:36:13.689Z,7.90
2022-11-29T19:38:43.407Z,7.90
2022-11-29T19:41:11.527Z,7.90
2022-11-29T19:43:39.284Z,7.90
2022-11-29T19:46:08.149Z,7.90
2022-11-29T19:48:35.875Z,7.90
2022-11-29T19:51:04.753Z,8.00
2022-11-29T19:53:32.469Z,7.90
2022-11-29T19:56:03.970Z,8.00
2022-11-29T19:58:31.654Z,8.00
2022-11-29T20:01:04.638Z,8.00
2022-11-29T20:03:32.417Z,8.10
2022-11-29T20:06:00.148Z,8.10
2022-11-29T20:08:27.848Z,8.10
2022-11-29T20:10:55.560Z,8.10
2022-11-29T20:13:24.601Z,8.10
2022-11-29T20:15:52.345Z,8.00
2022-11-29T20:18:20.115Z,8.00
2022-11-29T20:20:47.784Z,8.00
2022-11-29T20:23:15.520Z,8.00
2022-11-29T20:25:48.609Z,8.00
2022-11-29T20:28:16.286Z,7.90
2022-11-29T20:30:45.784Z,7.90
2022-11-29T20:33:16.932Z,7.90
2022-11-29T20:35:44.775Z,7.90
2022-11-29T20:38:17.284Z,7.90
2022-11-29T20:40:52.728Z,7.90
2022-11-29T20:43:23.248Z,7.80
2022-11-29T20:45:52.529Z,7.80
2022-11-29T20:48:20.915Z,7.80
2022-11-29T20:50:51.462Z,7.80
2022-11-29T20:53:27.448Z,7.80
2022-11-29T20:55:55.125Z,7.80
2022-11-29T20:58:22.829Z,7.80
2022-11-29T21:00:51.892Z,7.80
2022-11-29T21:03:20.000Z,7.80
2022-11-29T21:05:48.152Z,7.80
2022-11-29T21:08:16.145Z,7.80
2022-11-29T21:10:43.842Z,7.80
2022-11-29T21:13:12.366Z,7.70
2022-11-29T21:15:40.254Z,7.70
2022-11-29T21:18:17.095Z,7.60
2022-11-29T21:20:45.310Z,7.60
2022-11-29T21:23:16.413Z,7.60
2022-11-29T21:25:48.526Z,7.70
2022-11-29T21:28:16.707Z,7.70
2022-11-29T21:30:44.770Z,7.70
2022-11-29T21:33:14.124Z,7.70
2022-11-29T21:35:41.914Z,7.70
2022-11-29T21:38:12.553Z,7.70
2022-11-29T21:40:40.337Z,7.70
2022-11-29T21:43:07.974Z,7.70
2022-11-29T21:45:35.684Z,7.70
2022-11-29T21:48:03.424Z,7.80
2022-11-29T21:50:32.418Z,7.80
2022-11-29T21:53:00.090Z,7.80
2022-11-29T21:55:31.972Z,7.70
2022-11-29T21:58:00.002Z,7.80
2022-11-29T22:00:27.676Z,7.80
2022-11-29T22:02:57.312Z,7.80
2022-11-29T22:05:25.056Z,7.70
2022-11-29T22:07:56.574Z,7.80
2022-11-29T22:10:24.299Z,7.70
2022-11-29T22:12:52.847Z,7.70
2022-11-29T22:15:24.763Z,7.70
2022-11-29T22:17:52.874Z,7.70
2022-11-29T22:20:20.569Z,7.60
2022-11-29T22:22:48.926Z,7.60
2022-11-29T22:25:18.321Z,7.60
2022-11-29T22:27:46.138Z,7.50
2022-11-29T22:30:14.001Z,7.50
2022-11-29T22:32:41.690Z,7.50
2022-11-29T22:35:09.820Z,7.50
2022-11-29T22:37:37.488Z,7.40
2022-11-29T22:40:06.201Z,7.40
2022-11-29T22:42:35.309Z,7.40
2022-11-29T22:45:04.089Z,7.40
2022-11-29T22:47:31.790Z,7.40
2022-11-29T22:49:59.613Z,7.40
2022-11-29T22:52:28.124Z,7.40
2022-11-29T22:54:59.920Z,7.40
2022-11-29T22:57:30.747Z,7.30
2022-11-29T22:59:59.826Z,7.30
2022-11-29T23:02:29.008Z,7.30
2022-11-29T23:04:56.744Z,7.40
2022-11-29T23:07:24.428Z,7.40
2022-11-29T23:09:52.304Z,7.40
2022-11-29T23:12:20.696Z,7.50
2022-11-29T23:14:54.512Z,7.60
2022-11-29T23:17:25.361Z,7.60
2022-11-29T23:19:52.981Z,7.60
2022-11-29T23:22:20.637Z,7.70
2022-11-29T23:24:48.406Z,7.70
2022-11-29T23:27:16.199Z,7.70
2022-11-29T23:29:43.906Z,7.60
2022-11-29T23:32:11.534Z,7.60
2022-11-29T23:34:40.469Z,7.60
2022-11-29T23:37:08.125Z,7.60
2022-11-29T23:39:36.034Z,7.60
2022-11-29T23:42:03.679Z,7.60
2022-11-29T23:44:31.291Z,7.60
2022-11-29T23:46:58.987Z,7.60
2022-11-29T23:49:26.608Z,7.70
2022-11-29T23:51:55.575Z,7.60
2022-11-29T23:54:23.863Z,7.60
2022-11-29T23:56:51.485Z,7.60
2022-11-29T23:59:19.369Z,7.60
